Aeroporto :
LOGIN :

Iscrizione | Disclaimer

   EN    FR    IT 

 










Sommario :    VFR   VFR Marginale   IFR   IFR Intensivo   IFR Molto Intensivo
Visibilità : 
Base nubi : 
>= 8 km
>= 3000ft
5 / 8 km
1000 / 3000 ft
1500m / 5 km
500 / 1000 ft
800 / 1500m
200 / 500 ft
< 800m
< 200 ft
Simboli :   Temporali  Nebbia  Neve Forte  Precipitazioni Forti  Vento > 20 kt
SIGMETs :   Varie  Temporali  Ghiacco  Turbolenza  Onda orograficha  Ceneri Vulcaniche






- Altitudine del aeroporto : 25 ft
- Codice IATA : QCY


EGXC - RAF Coningsby

ULTIMO METAR :
  • 140550Z 12003KT CAVOK 07/07 Q1010 NOSIG RMK BLU BLU

METARs OBSOLETI :
  • 140450Z 15002KT CAVOK 07/07 Q1010 NOSIG RMK BLU BLU
  • 140350Z 14002KT CAVOK 07/07 Q1010 RMK BLU

TAF TAF EGXC
Valido dal 14 a 06 ore il 15 a 00 ore UTC


140418Z 1406/1424 12004KT CAVOK
TEMPO 1411/1420 6000 RA
PROB30
TEMPO 1411/1414 SCT010
BECMG 1414/1417 BKN010
PROB40
TEMPO 1414/1420 2500 +RA
PROB30
TEMPO 1416/1418 SCT005
PROB30
TEMPO 1418/1424 BKN004
PROB30
TEMPO 1420/1423 3000 DZ



MetMap, La meteo Aeronautica in un colpo d'occhio ! - Copyright ORBIFLY Dicembre 2007 - Disclaimer

ORBIFLY MET'MAP TEAM :

Programmazione e sviluppo : Alexandra Zaïnal
Concezione e sviluppo : Baudouin d'Aumeries
Co-Programmazione e sviluppo : Marc-Olivier Méhu
Supporto tecnico e logistico : Manuel Goepfert
Aiuto per la traduzione : Arnaldo La Scala

Contatto : metmap@orbifly.com




FONTI E CREDITI :

   NOAA